Time;durP1;ratioP1;P1;durP2;ratioP2;P2;SDS_P1;SDS_P2;PMS_P1;PMS_P2;Temp;Humidity;BMP_temperature;BMP_pressure;BME280_temperature;BME280_humidity;BME280_pressure;Samples;Min_cycle;Max_cycle;Signal;HPM_P1;HPM_P2
2023/08/15 00:02:10;;;;;;;6.90;4.90;;;23.60;96.20;;;;;;5113069;28;20435;-69
2023/08/15 00:04:39;;;;;;;6.80;4.93;;;23.60;96.20;;;;;;5113133;28;20454;-70
2023/08/15 00:07:16;;;;;;;7.60;4.70;;;23.60;96.20;;;;;;5113283;28;20909;-69
2023/08/15 00:09:43;;;;;;;4.63;4.20;;;23.60;96.30;;;;;;5112828;28;20814;-69
2023/08/15 00:12:13;;;;;;;5.63;4.70;;;23.60;96.20;;;;;;5112958;28;20522;-69
2023/08/15 00:14:43;;;;;;;7.67;5.70;;;23.50;96.10;;;;;;5112959;28;20442;-69
2023/08/15 00:17:14;;;;;;;6.50;5.30;;;23.50;95.70;;;;;;5113228;28;20434;-69
2023/08/15 00:19:43;;;;;;;7.90;5.70;;;23.40;95.80;;;;;;5113448;28;20462;-70
2023/08/15 00:22:13;;;;;;;7.57;5.30;;;23.40;95.90;;;;;;5112767;28;20436;-70
2023/08/15 00:24:42;;;;;;;7.07;5.67;;;23.40;96.00;;;;;;5113473;28;20442;-69
2023/08/15 00:27:12;;;;;;;10.03;5.40;;;23.30;96.20;;;;;;5112838;28;20440;-69
2023/08/15 00:29:47;;;;;;;8.33;5.10;;;23.30;96.40;;;;;;5113506;28;20435;-69
2023/08/15 00:32:16;;;;;;;10.20;5.17;;;23.30;96.60;;;;;;5113542;28;20419;-69
2023/08/15 00:34:44;;;;;;;5.83;5.20;;;23.20;96.50;;;;;;5113725;28;20526;-69
2023/08/15 00:37:12;;;;;;;6.30;5.10;;;23.10;96.80;;;;;;5113459;28;20935;-69
2023/08/15 00:39:47;;;;;;;8.30;5.30;;;23.00;97.00;;;;;;5113636;28;20474;-69
2023/08/15 00:42:29;;;;;;;11.87;5.40;;;22.90;97.10;;;;;;5113524;28;20788;-69
2023/08/15 00:44:57;;;;;;;5.13;4.40;;;22.90;97.00;;;;;;5113739;28;20749;-69
2023/08/15 00:47:30;;;;;;;5.47;4.57;;;22.90;97.10;;;;;;5113330;28;20434;-70
2023/08/15 00:49:59;;;;;;;7.23;5.20;;;22.90;97.00;;;;;;5113787;28;20435;-69
2023/08/15 00:52:30;;;;;;;6.93;4.60;;;22.90;96.90;;;;;;5113560;28;20431;-69
2023/08/15 00:54:57;;;;;;;6.60;4.30;;;22.90;96.60;;;;;;5113572;28;20843;-69
2023/08/15 00:57:25;;;;;;;5.97;4.03;;;22.90;96.30;;;;;;5112612;28;20443;-69
2023/08/15 00:59:54;;;;;;;6.40;4.83;;;22.90;96.10;;;;;;5113114;28;20472;-69
2023/08/15 01:02:26;;;;;;;7.43;4.07;;;22.80;95.10;;;;;;5113446;28;20434;-69
2023/08/15 01:04:54;;;;;;;6.03;4.50;;;22.70;94.40;;;;;;5113379;28;20422;-69
2023/08/15 01:07:24;;;;;;;4.40;3.73;;;22.70;94.50;;;;;;5113149;28;20492;-69
2023/08/15 01:09:55;;;;;;;6.80;4.17;;;22.70;94.30;;;;;;5112957;28;20454;-69
2023/08/15 01:12:32;;;;;;;9.10;4.20;;;22.70;94.50;;;;;;5113064;28;20430;-71
2023/08/15 01:15:04;;;;;;;3.90;3.50;;;22.70;94.40;;;;;;5113462;28;20422;-69
2023/08/15 01:17:38;;;;;;;4.07;3.67;;;22.70;94.10;;;;;;5113181;28;20427;-69
2023/08/15 01:20:11;;;;;;;5.13;4.23;;;22.70;94.00;;;;;;5112989;28;20458;-68
2023/08/15 01:22:44;;;;;;;5.60;3.80;;;22.70;93.60;;;;;;5113016;28;20885;-71
2023/08/15 01:25:13;;;;;;;6.00;3.30;;;22.60;93.10;;;;;;5112761;28;20429;-69
2023/08/15 01:27:49;;;;;;;6.40;4.27;;;22.50;92.90;;;;;;5112757;28;20916;-69
2023/08/15 01:30:24;;;;;;;6.40;3.83;;;22.50;93.10;;;;;;5113148;28;20510;-69
2023/08/15 01:33:00;;;;;;;6.67;4.00;;;22.50;93.20;;;;;;5112796;28;20559;-69
2023/08/15 01:35:38;;;;;;;5.23;4.23;;;22.50;93.50;;;;;;5115793;28;20415;-69
2023/08/15 01:38:15;;;;;;;6.93;3.70;;;22.50;93.60;;;;;;5116563;28;20434;-69
2023/08/15 01:40:48;;;;;;;4.70;3.80;;;22.50;93.60;;;;;;5116166;28;20462;-69
2023/08/15 01:43:19;;;;;;;5.60;4.07;;;22.50;93.40;;;;;;5116201;28;20528;-70
2023/08/15 01:45:49;;;;;;;6.67;3.63;;;22.50;93.20;;;;;;5116492;28;20468;-69
2023/08/15 01:48:19;;;;;;;6.33;4.23;;;22.50;93.20;;;;;;5116197;28;20438;-69
2023/08/15 01:50:48;;;;;;;5.17;4.17;;;22.40;93.10;;;;;;5116240;28;20481;-69
2023/08/15 01:53:17;;;;;;;8.87;4.10;;;22.40;93.10;;;;;;5116501;28;20431;-69
2023/08/15 01:55:51;;;;;;;5.13;4.40;;;22.30;93.20;;;;;;5116798;28;20453;-69
2023/08/15 01:58:23;;;;;;;8.70;3.97;;;22.20;93.30;;;;;;5115751;28;20427;-69
2023/08/15 02:00:52;;;;;;;5.47;4.27;;;22.10;93.50;;;;;;5116044;28;20470;-69
2023/08/15 02:03:20;;;;;;;6.40;5.40;;;22.10;93.30;;;;;;5115986;28;20430;-69
2023/08/15 02:05:49;;;;;;;7.10;4.93;;;22.00;93.00;;;;;;5116327;28;20437;-69
2023/08/15 02:08:18;;;;;;;6.40;4.60;;;21.90;92.90;;;;;;5116330;28;20521;-69
2023/08/15 02:10:47;;;;;;;4.53;3.90;;;21.80;92.90;;;;;;5114547;28;20493;-69
2023/08/15 02:13:15;;;;;;;5.90;4.27;;;21.70;93.10;;;;;;5115404;28;20474;-69
2023/08/15 02:15:42;;;;;;;6.30;4.40;;;21.70;92.90;;;;;;5116142;28;20836;-69
2023/08/15 02:18:10;;;;;;;7.83;3.63;;;21.60;92.30;;;;;;5115940;28;20496;-69
2023/08/15 02:20:40;;;;;;;7.37;3.30;;;21.60;92.40;;;;;;5115945;28;20466;-69
2023/08/15 02:23:11;;;;;;;4.80;3.67;;;21.60;92.60;;;;;;5115313;28;20470;-68
2023/08/15 02:25:43;;;;;;;5.50;3.53;;;21.60;92.90;;;;;;5115985;28;20933;-69
2023/08/15 02:28:16;;;;;;;7.70;2.77;;;21.70;92.70;;;;;;5115799;28;20800;-69
2023/08/15 02:30:48;;;;;;;4.10;2.83;;;21.70;92.40;;;;;;5114909;28;20423;-74
2023/08/15 02:33:17;;;;;;;5.53;3.27;;;21.70;91.90;;;;;;5101913;28;20422;-69
2023/08/15 02:35:46;;;;;;;4.30;3.13;;;21.70;92.00;;;;;;5114632;28;20446;-69
2023/08/15 02:38:13;;;;;;;5.10;3.83;;;21.70;91.80;;;;;;5115644;28;20450;-69
2023/08/15 02:40:44;;;;;;;10.20;4.00;;;21.80;91.60;;;;;;5115544;28;20510;-69
2023/08/15 02:43:13;;;;;;;4.87;4.00;;;21.80;91.40;;;;;;5115171;28;20487;-69
2023/08/15 02:45:42;;;;;;;8.33;3.87;;;21.80;91.30;;;;;;5114948;28;20484;-69
2023/08/15 02:48:11;;;;;;;4.10;2.80;;;21.80;91.40;;;;;;5115182;28;20505;-69
2023/08/15 02:50:40;;;;;;;3.57;3.10;;;21.80;91.50;;;;;;5115110;28;20449;-69
2023/08/15 02:53:10;;;;;;;5.10;3.70;;;21.80;91.70;;;;;;5115379;28;20438;-69
2023/08/15 02:55:37;;;;;;;3.93;3.10;;;21.80;91.70;;;;;;5115002;28;20439;-69
2023/08/15 02:58:07;;;;;;;5.20;3.53;;;21.70;91.90;;;;;;5114845;28;20434;-69
2023/08/15 03:00:37;;;;;;;6.20;3.70;;;21.70;92.10;;;;;;5114850;28;20858;-69
2023/08/15 03:03:06;;;;;;;4.97;3.77;;;21.70;92.20;;;;;;5114553;28;20439;-69
2023/08/15 03:05:39;;;;;;;4.67;3.53;;;21.70;92.20;;;;;;5115173;28;20434;-69
2023/08/15 03:08:07;;;;;;;4.23;3.20;;;21.70;92.20;;;;;;5115129;28;20446;-69
2023/08/15 03:10:39;;;;;;;7.03;3.13;;;21.70;92.00;;;;;;5114663;28;20466;-69
2023/08/15 03:13:11;;;;;;;4.50;3.20;;;21.70;91.80;;;;;;5114242;28;20439;-69
2023/08/15 03:15:40;;;;;;;7.67;3.50;;;21.70;91.20;;;;;;5114693;28;20472;-69
2023/08/15 03:18:13;;;;;;;5.40;3.60;;;21.70;91.00;;;;;;5114814;28;20972;-69
2023/08/15 03:20:45;;;;;;;9.10;3.23;;;21.60;91.00;;;;;;5114391;28;20553;-69
2023/08/15 03:23:12;;;;;;;5.50;3.30;;;21.50;91.10;;;;;;5114471;28;20433;-68
2023/08/15 03:25:40;;;;;;;5.23;3.50;;;21.50;91.10;;;;;;5114755;28;20430;-69
2023/08/15 03:28:09;;;;;;;4.40;3.03;;;21.40;90.80;;;;;;5113891;28;20481;-69
2023/08/15 03:30:41;;;;;;;5.03;3.07;;;21.40;90.70;;;;;;5114527;28;20834;-69
2023/08/15 03:33:13;;;;;;;6.07;3.53;;;21.30;90.90;;;;;;5114311;28;20423;-69
2023/08/15 03:35:45;;;;;;;8.90;4.73;;;21.30;91.20;;;;;;5114590;28;20418;-68
2023/08/15 03:38:18;;;;;;;3.70;2.90;;;21.30;91.10;;;;;;5114459;28;20415;-74
2023/08/15 03:40:50;;;;;;;4.00;3.40;;;21.20;91.10;;;;;;5113867;28;20955;-73
2023/08/15 03:43:19;;;;;;;5.57;3.30;;;21.20;91.10;;;;;;5114110;28;20419;-68
2023/08/15 03:45:51;;;;;;;4.53;3.47;;;21.20;91.20;;;;;;5114084;28;20513;-69
2023/08/15 03:48:22;;;;;;;3.87;2.97;;;21.10;91.30;;;;;;5114480;28;20422;-69
2023/08/15 03:50:55;;;;;;;4.53;3.30;;;21.10;91.20;;;;;;5113952;28;20422;-68
2023/08/15 03:53:26;;;;;;;4.10;3.50;;;21.10;91.20;;;;;;5114137;28;20431;-68
2023/08/15 03:55:57;;;;;;;3.83;3.03;;;20.90;91.60;;;;;;5114214;28;20415;-69
2023/08/15 03:58:29;;;;;;;4.27;3.17;;;20.80;91.60;;;;;;5113656;28;20419;-69
2023/08/15 04:00:56;;;;;;;10.00;3.90;;;20.70;91.90;;;;;;5113791;28;20462;-69
2023/08/15 04:03:25;;;;;;;5.00;3.77;;;20.60;91.80;;;;;;5113363;28;20446;-69
2023/08/15 04:05:57;;;;;;;5.10;3.47;;;20.60;92.00;;;;;;5113758;28;20430;-69
2023/08/15 04:08:27;;;;;;;4.93;2.90;;;20.60;92.00;;;;;;5114149;28;20429;-69
2023/08/15 04:10:57;;;;;;;5.07;4.20;;;20.70;92.00;;;;;;5113047;28;20470;-69
2023/08/15 04:13:24;;;;;;;4.93;3.30;;;20.70;91.70;;;;;;5113534;28;20435;-69
2023/08/15 04:15:52;;;;;;;4.30;2.93;;;20.70;91.80;;;;;;5114037;28;20781;-69
2023/08/15 04:18:21;;;;;;;5.20;3.70;;;20.70;91.70;;;;;;5113194;28;20435;-69
2023/08/15 04:20:50;;;;;;;5.07;3.30;;;20.80;91.60;;;;;;5113200;28;20477;-69
2023/08/15 04:23:20;;;;;;;4.67;3.57;;;20.70;91.20;;;;;;5113744;28;20431;-69
2023/08/15 04:25:50;;;;;;;5.97;3.63;;;20.70;91.40;;;;;;5113244;28;20435;-69
2023/08/15 04:28:22;;;;;;;4.10;3.30;;;20.70;91.10;;;;;;5113227;28;20434;-68
2023/08/15 04:30:51;;;;;;;5.73;3.73;;;20.70;91.10;;;;;;5113303;28;20430;-69
2023/08/15 04:33:21;;;;;;;6.03;3.70;;;20.70;91.10;;;;;;5113647;28;20764;-69
2023/08/15 04:35:54;;;;;;;4.60;2.77;;;20.70;91.10;;;;;;5113089;28;20439;-69
2023/08/15 04:38:35;;;;;;;4.30;3.00;;;20.70;90.90;;;;;;5112893;28;20426;-69
2023/08/15 04:41:06;;;;;;;4.10;2.97;;;20.70;91.10;;;;;;5113425;28;20532;-73
2023/08/15 04:43:38;;;;;;;5.13;3.13;;;20.70;91.10;;;;;;5112385;28;20530;-69
2023/08/15 04:46:06;;;;;;;4.40;2.90;;;20.70;90.70;;;;;;5112377;28;20474;-69
2023/08/15 04:48:33;;;;;;;6.87;4.03;;;20.70;90.60;;;;;;5112724;28;20431;-69
2023/08/15 04:51:02;;;;;;;9.00;5.50;;;20.80;90.50;;;;;;5113372;28;20431;-69
2023/08/15 04:53:31;;;;;;;6.73;5.07;;;20.80;90.50;;;;;;5112894;28;20438;-69
2023/08/15 04:56:01;;;;;;;5.63;4.70;;;20.90;90.60;;;;;;5113416;28;20435;-69
2023/08/15 04:58:28;;;;;;;5.00;4.03;;;21.00;90.90;;;;;;5113000;28;20905;-69
2023/08/15 05:00:56;;;;;;;4.73;3.63;;;21.00;91.20;;;;;;5113303;28;20523;-69
2023/08/15 05:03:26;;;;;;;6.03;4.23;;;21.10;91.30;;;;;;5112704;28;20431;-68
2023/08/15 05:05:53;;;;;;;5.20;2.80;;;21.20;91.50;;;;;;5112524;28;20431;-69
2023/08/15 05:08:22;;;;;;;5.10;3.27;;;21.30;91.70;;;;;;5113319;28;20511;-68
2023/08/15 05:10:50;;;;;;;4.57;3.40;;;21.30;91.60;;;;;;5115987;28;20823;-69
2023/08/15 05:13:18;;;;;;;4.37;2.43;;;21.40;91.40;;;;;;5116788;28;20518;-68
2023/08/15 05:15:46;;;;;;;4.90;3.00;;;21.40;90.50;;;;;;5116921;28;20439;-69
2023/08/15 05:18:17;;;;;;;5.13;3.50;;;21.40;90.40;;;;;;5117202;28;20426;-69
2023/08/15 05:20:46;;;;;;;10.03;3.80;;;21.50;91.00;;;;;;5116622;28;20427;-68
2023/08/15 05:23:14;;;;;;;4.53;3.13;;;21.60;90.80;;;;;;5116493;28;20430;-69
2023/08/15 05:25:44;;;;;;;5.07;3.33;;;21.60;90.80;;;;;;5116190;28;20438;-69
2023/08/15 05:28:13;;;;;;;4.43;3.37;;;21.70;90.80;;;;;;5116299;28;20431;-69
2023/08/15 05:30:43;;;;;;;5.97;3.90;;;21.70;90.30;;;;;;5116503;27;20924;-68
2023/08/15 05:33:11;;;;;;;4.73;3.30;;;21.70;89.60;;;;;;5116389;28;20421;-69
2023/08/15 05:35:40;;;;;;;4.93;3.50;;;21.70;89.80;;;;;;5116434;28;20435;-70
2023/08/15 05:38:08;;;;;;;4.00;2.87;;;21.70;90.10;;;;;;5116630;28;20875;-69
2023/08/15 05:40:35;;;;;;;5.37;3.40;;;21.70;89.90;;;;;;5116685;28;20841;-69
2023/08/15 05:43:09;;;;;;;4.40;3.30;;;21.80;90.10;;;;;;5116337;28;20910;-73
2023/08/15 05:45:36;;;;;;;4.30;3.17;;;21.90;89.40;;;;;;5096425;28;20820;-69
2023/08/15 05:48:04;;;;;;;3.83;3.10;;;21.80;88.80;;;;;;5103860;28;20484;-68
2023/08/15 05:50:33;;;;;;;3.80;2.87;;;21.90;88.80;;;;;;5116673;28;20462;-69
2023/08/15 05:53:01;;;;;;;5.10;3.10;;;21.80;88.20;;;;;;5116450;28;20429;-69
2023/08/15 05:55:33;;;;;;;4.83;3.10;;;21.90;88.80;;;;;;5116312;28;20442;-69
2023/08/15 05:58:05;;;;;;;5.40;3.67;;;22.00;88.60;;;;;;5115873;28;20423;-68
2023/08/15 06:00:34;;;;;;;5.03;3.50;;;22.10;89.80;;;;;;5116232;28;20468;-69
2023/08/15 06:03:04;;;;;;;6.27;2.97;;;22.10;86.10;;;;;;5115612;28;20485;-69
2023/08/15 06:05:36;;;;;;;4.70;3.20;;;22.20;86.90;;;;;;5116018;28;20438;-69
2023/08/15 06:08:06;;;;;;;3.47;2.63;;;22.40;87.90;;;;;;5115819;28;20476;-68
2023/08/15 06:10:35;;;;;;;4.00;2.90;;;22.60;88.10;;;;;;5112430;27;20466;-69
2023/08/15 06:13:02;;;;;;;5.67;2.73;;;22.70;87.50;;;;;;5115296;28;20774;-68
2023/08/15 06:15:33;;;;;;;4.57;3.20;;;22.90;87.50;;;;;;5115466;28;20458;-70
2023/08/15 06:18:04;;;;;;;5.03;3.20;;;23.00;87.00;;;;;;5115024;28;20422;-70
2023/08/15 06:20:36;;;;;;;5.03;3.17;;;23.10;86.90;;;;;;5114713;28;20941;-69
2023/08/15 06:23:04;;;;;;;6.43;2.50;;;23.30;86.70;;;;;;5115046;28;20482;-69
2023/08/15 06:25:39;;;;;;;4.47;2.53;;;23.40;85.80;;;;;;5114896;28;20427;-70
2023/08/15 06:28:17;;;;;;;4.03;3.00;;;23.50;85.20;;;;;;5115050;28;20854;-69
2023/08/15 06:30:45;;;;;;;4.93;3.33;;;23.70;85.20;;;;;;5114959;28;20820;-69
2023/08/15 06:33:13;;;;;;;4.50;2.83;;;23.80;83.40;;;;;;5114666;28;20488;-69
2023/08/15 06:35:40;;;;;;;3.83;2.47;;;23.80;83.30;;;;;;5114617;28;20961;-69
2023/08/15 06:38:07;;;;;;;3.33;2.27;;;24.00;83.60;;;;;;5114599;28;20442;-69
2023/08/15 06:40:34;;;;;;;3.70;2.80;;;24.10;82.20;;;;;;5110675;28;20435;-70
2023/08/15 06:43:02;;;;;;;4.53;3.30;;;24.20;81.80;;;;;;5113444;28;20471;-69
2023/08/15 06:45:29;;;;;;;4.90;3.17;;;24.30;83.10;;;;;;5114106;28;20487;-69
2023/08/15 06:47:58;;;;;;;9.40;3.70;;;24.50;83.10;;;;;;5114343;28;20439;-71
2023/08/15 06:50:25;;;;;;;3.17;2.50;;;24.60;80.60;;;;;;5113632;28;20501;-76
2023/08/15 06:52:52;;;;;;;4.23;3.00;;;24.80;80.70;;;;;;5114081;28;20434;-69
2023/08/15 06:55:20;;;;;;;5.40;3.40;;;24.80;78.50;;;;;;5114329;28;20479;-69
2023/08/15 06:57:47;;;;;;;4.70;3.20;;;24.90;78.60;;;;;;5114258;28;20437;-70
2023/08/15 07:00:15;;;;;;;6.83;3.73;;;25.00;79.70;;;;;;5113678;28;20434;-69
2023/08/15 07:02:42;;;;;;;7.97;3.30;;;25.20;78.20;;;;;;5113591;28;20488;-69
2023/08/15 07:05:11;;;;;;;4.00;3.00;;;25.10;77.00;;;;;;5113201;28;20435;-69
2023/08/15 07:07:40;;;;;;;5.90;3.30;;;25.20;77.20;;;;;;5113588;28;20430;-69
2023/08/15 07:10:11;;;;;;;6.23;3.40;;;25.30;78.40;;;;;;5112928;28;20466;-69
2023/08/15 07:12:38;;;;;;;5.20;3.10;;;25.50;77.50;;;;;;5114204;28;20426;-69
2023/08/15 07:15:06;;;;;;;4.23;3.10;;;25.60;78.30;;;;;;5113159;28;20760;-71
2023/08/15 07:17:34;;;;;;;7.03;3.40;;;25.70;78.30;;;;;;5113111;28;20521;-68
2023/08/15 07:20:01;;;;;;;3.97;3.37;;;25.80;78.10;;;;;;5113615;28;20843;-68
2023/08/15 07:22:30;;;;;;;5.40;3.10;;;25.90;76.00;;;;;;5113975;28;20462;-69
2023/08/15 07:24:57;;;;;;;5.50;3.67;;;25.90;75.40;;;;;;5113924;28;20950;-69
2023/08/15 07:27:24;;;;;;;4.33;3.40;;;26.00;76.20;;;;;;5105409;28;20480;-68
2023/08/15 07:29:52;;;;;;;4.37;2.90;;;26.10;76.60;;;;;;5111629;28;20442;-69
2023/08/15 07:32:19;;;;;;;4.40;2.83;;;26.10;73.00;;;;;;5111145;28;20488;-68
2023/08/15 07:34:46;;;;;;;3.53;2.90;;;26.10;74.00;;;;;;5113258;27;20435;-69
2023/08/15 07:37:13;;;;;;;4.40;3.53;;;26.20;73.90;;;;;;5113439;28;20945;-69
2023/08/15 07:39:42;;;;;;;6.10;3.23;;;26.20;72.00;;;;;;5113658;28;20828;-69
2023/08/15 07:42:10;;;;;;;5.53;4.20;;;26.10;72.80;;;;;;5112601;28;21009;-69
2023/08/15 07:44:37;;;;;;;3.87;3.17;;;26.10;73.30;;;;;;5112474;28;20987;-69
2023/08/15 07:47:05;;;;;;;7.73;3.70;;;26.30;73.20;;;;;;5112830;27;20446;-69
2023/08/15 07:49:32;;;;;;;5.23;4.23;;;26.40;74.30;;;;;;5113551;28;20449;-69
2023/08/15 07:51:59;;;;;;;5.73;4.03;;;26.60;73.10;;;;;;5113270;28;20442;-70
2023/08/15 07:54:27;;;;;;;5.80;3.53;;;26.70;72.40;;;;;;5112747;28;20528;-68
2023/08/15 07:56:56;;;;;;;4.10;3.27;;;26.80;73.10;;;;;;5113042;28;20769;-68
2023/08/15 07:59:23;;;;;;;4.07;3.13;;;27.00;73.60;;;;;;5113073;28;20438;-68
2023/08/15 08:01:50;;;;;;;4.73;3.80;;;27.10;72.80;;;;;;5112883;28;20511;-69
2023/08/15 08:04:24;;;;;;;4.50;3.70;;;27.30;71.20;;;;;;5113425;28;20443;-69
2023/08/15 08:06:51;;;;;;;3.73;3.07;;;27.40;69.00;;;;;;5113400;28;20468;-69
2023/08/15 08:09:18;;;;;;;5.47;3.40;;;27.50;70.00;;;;;;5113039;28;20800;-69
2023/08/15 08:11:48;;;;;;;4.60;3.40;;;27.70;70.50;;;;;;5111859;28;20438;-69
2023/08/15 08:14:16;;;;;;;7.17;3.97;;;28.00;69.20;;;;;;5112486;28;20442;-69
2023/08/15 08:16:44;;;;;;;5.03;3.60;;;28.20;68.40;;;;;;5112667;28;20427;-69
2023/08/15 08:19:11;;;;;;;8.47;4.00;;;28.40;68.40;;;;;;5112190;28;20526;-70
2023/08/15 08:21:39;;;;;;;5.90;3.70;;;28.60;67.50;;;;;;5112656;28;20525;-68
2023/08/15 08:24:06;;;;;;;5.80;3.53;;;28.70;65.10;;;;;;5112674;28;20496;-69
2023/08/15 08:26:34;;;;;;;5.30;4.40;;;28.90;65.00;;;;;;5112100;28;20924;-70
2023/08/15 08:29:01;;;;;;;7.30;5.73;;;29.10;63.30;;;;;;5111971;28;20445;-69
2023/08/15 08:31:30;;;;;;;6.23;4.03;;;29.20;64.00;;;;;;5112668;28;20434;-69
2023/08/15 08:33:57;;;;;;;4.40;3.57;;;29.40;63.60;;;;;;5112458;28;20932;-69
2023/08/15 08:36:25;;;;;;;7.23;3.73;;;29.70;64.40;;;;;;5112534;28;20430;-69
2023/08/15 08:38:54;;;;;;;4.77;3.93;;;29.90;64.90;;;;;;5112084;28;20434;-69
2023/08/15 08:41:21;;;;;;;4.63;4.13;;;30.20;65.10;;;;;;5112176;28;20946;-69
2023/08/15 08:43:48;;;;;;;3.80;3.10;;;30.40;58.30;;;;;;5114242;27;20470;-69
2023/08/15 08:46:17;;;;;;;5.00;3.50;;;30.50;59.60;;;;;;5115965;28;20438;-69
2023/08/15 08:48:47;;;;;;;4.83;3.10;;;30.70;59.10;;;;;;5116489;28;20431;-69
2023/08/15 08:51:16;;;;;;;5.30;3.40;;;30.90;60.20;;;;;;5116469;28;20908;-69
2023/08/15 08:53:43;;;;;;;6.50;3.80;;;31.10;61.40;;;;;;5116340;28;20947;-71
2023/08/15 08:56:11;;;;;;;6.83;3.50;;;31.30;59.10;;;;;;5116115;28;20993;-69
2023/08/15 08:58:45;;;;;;;5.00;3.50;;;31.50;58.80;;;;;;5115954;28;20447;-69
2023/08/15 09:01:14;;;;;;;4.27;3.33;;;31.70;60.60;;;;;;5116541;28;20759;-71
2023/08/15 09:03:41;;;;;;;6.40;3.63;;;32.00;58.90;;;;;;5115991;28;20506;-69
2023/08/15 09:06:11;;;;;;;8.37;3.50;;;32.10;55.70;;;;;;5114155;28;20554;-69
2023/08/15 09:08:38;;;;;;;5.80;3.57;;;32.20;56.90;;;;;;5115808;28;20513;-69
2023/08/15 09:11:10;;;;;;;5.37;3.70;;;32.40;58.30;;;;;;5116036;28;20527;-69
2023/08/15 09:13:46;;;;;;;4.87;3.93;;;32.60;56.00;;;;;;5116029;28;20778;-69
2023/08/15 09:16:13;;;;;;;5.17;3.37;;;32.80;56.90;;;;;;5115244;28;20785;-69
2023/08/15 09:18:42;;;;;;;6.03;4.40;;;32.90;56.20;;;;;;5115168;28;20434;-70
2023/08/15 09:21:14;;;;;;;5.40;3.97;;;33.10;56.80;;;;;;5115496;28;20491;-69
2023/08/15 09:23:42;;;;;;;7.33;4.50;;;33.30;54.40;;;;;;5111797;28;20481;-71
2023/08/15 09:26:13;;;;;;;4.67;4.17;;;33.40;52.70;;;;;;5115117;28;20803;-70
2023/08/15 09:28:41;;;;;;;4.80;3.93;;;33.40;53.50;;;;;;5111782;28;20917;-69
2023/08/15 09:31:11;;;;;;;4.73;3.60;;;33.60;54.30;;;;;;5115438;28;20445;-69
2023/08/15 09:33:39;;;;;;;4.63;3.60;;;33.70;53.40;;;;;;5114743;28;20479;-69
2023/08/15 09:36:07;;;;;;;6.57;3.50;;;33.80;52.40;;;;;;5114588;28;20447;-69
2023/08/15 09:38:37;;;;;;;5.10;3.97;;;33.90;51.70;;;;;;5115466;28;20939;-69
2023/08/15 09:41:05;;;;;;;7.27;3.77;;;33.90;50.50;;;;;;5115058;28;20427;-72
2023/08/15 09:43:36;;;;;;;6.60;4.30;;;33.90;51.50;;;;;;5114800;28;20523;-69
2023/08/15 09:46:04;;;;;;;8.30;4.00;;;33.90;50.20;;;;;;5114250;28;20503;-69
2023/08/15 09:48:33;;;;;;;4.70;3.57;;;33.90;50.50;;;;;;5114415;28;20442;-72
2023/08/15 09:51:07;;;;;;;5.33;3.47;;;33.80;48.90;;;;;;5113335;28;20439;-69
2023/08/15 09:53:38;;;;;;;4.43;3.77;;;33.70;48.80;;;;;;5114812;28;20442;-69
2023/08/15 09:56:05;;;;;;;6.27;4.13;;;33.80;49.60;;;;;;5114838;28;20419;-69
2023/08/15 09:58:35;;;;;;;4.87;3.80;;;33.90;49.20;;;;;;5115617;28;20774;-76
2023/08/15 10:01:05;;;;;;;4.60;3.87;;;34.10;50.30;;;;;;5115064;28;20996;-69
2023/08/15 10:03:37;;;;;;;4.60;4.10;;;34.20;51.00;;;;;;5114807;28;20480;-69
2023/08/15 10:06:07;;;;;;;4.63;3.83;;;34.50;51.00;;;;;;5115247;28;20790;-70
2023/08/15 10:08:38;;;;;;;6.07;4.47;;;34.60;52.00;;;;;;5115532;28;20513;-69
2023/08/15 10:11:07;;;;;;;6.07;4.70;;;34.80;51.70;;;;;;5113216;28;20466;-69
2023/08/15 10:13:36;;;;;;;6.03;4.57;;;35.00;49.40;;;;;;5114705;28;20519;-72
2023/08/15 10:16:06;;;;;;;5.50;4.30;;;34.90;46.20;;;;;;5114944;28;20429;-71
2023/08/15 10:18:33;;;;;;;6.13;4.23;;;34.90;47.90;;;;;;5114813;28;20834;-69
2023/08/15 10:21:01;;;;;;;5.47;3.87;;;35.00;47.30;;;;;;5114942;28;20487;-69
2023/08/15 10:23:29;;;;;;;6.33;4.63;;;35.10;48.30;;;;;;5114812;28;20900;-70
2023/08/15 10:25:59;;;;;;;5.23;4.00;;;35.10;47.20;;;;;;5115258;28;20431;-70
2023/08/15 10:28:28;;;;;;;7.13;4.37;;;35.20;48.30;;;;;;5114655;28;20963;-70
2023/08/15 10:30:56;;;;;;;5.83;4.10;;;35.30;48.90;;;;;;5114235;28;20544;-69
2023/08/15 10:33:25;;;;;;;5.17;3.90;;;35.50;49.40;;;;;;5114077;28;20439;-69
2023/08/15 10:36:06;;;;;;;5.77;4.20;;;35.60;48.40;;;;;;5110829;28;20503;-70
2023/08/15 10:38:37;;;;;;;7.20;4.23;;;35.70;47.90;;;;;;5114822;28;20506;-70
2023/08/15 10:41:07;;;;;;;5.83;4.30;;;35.90;47.50;;;;;;5114748;28;20426;-69
2023/08/15 10:43:35;;;;;;;8.40;4.33;;;36.00;48.00;;;;;;5113891;28;20461;-71
2023/08/15 10:46:04;;;;;;;5.20;3.83;;;36.10;48.00;;;;;;5114840;28;20465;-70
2023/08/15 10:48:42;;;;;;;8.83;5.10;;;36.20;46.40;;;;;;5114347;28;20436;-70
2023/08/15 10:51:17;;;;;;;6.40;4.17;;;36.40;47.20;;;;;;5114697;28;20438;-70
2023/08/15 10:53:44;;;;;;;5.07;4.40;;;36.40;47.40;;;;;;5113851;28;20584;-71
2023/08/15 10:56:13;;;;;;;6.30;4.77;;;36.50;47.50;;;;;;5114594;28;20526;-71
2023/08/15 10:58:41;;;;;;;5.17;4.10;;;36.70;47.50;;;;;;5113508;28;20475;-70
2023/08/15 11:01:08;;;;;;;7.13;4.50;;;36.80;46.00;;;;;;5114830;28;20527;-69
2023/08/15 11:03:36;;;;;;;6.00;4.20;;;36.80;45.90;;;;;;5113945;28;20891;-69
2023/08/15 11:06:11;;;;;;;6.73;4.00;;;36.90;46.70;;;;;;5114128;28;20441;-71
2023/08/15 11:08:42;;;;;;;8.47;4.30;;;37.00;45.40;;;;;;5114338;28;20541;-70
2023/08/15 11:11:09;;;;;;;4.43;4.03;;;37.10;46.10;;;;;;5094019;28;20547;-69
2023/08/15 11:13:39;;;;;;;7.97;4.27;;;37.10;46.20;;;;;;5112300;28;20431;-70
2023/08/15 11:16:07;;;;;;;6.53;4.17;;;37.10;46.00;;;;;;5114035;28;20475;-70
2023/08/15 11:18:34;;;;;;;7.67;5.07;;;37.20;44.50;;;;;;5113847;28;20940;-69
2023/08/15 11:21:01;;;;;;;6.10;3.83;;;37.20;44.40;;;;;;5113894;28;20427;-71
2023/08/15 11:23:29;;;;;;;6.67;4.30;;;37.20;44.20;;;;;;5113608;28;20883;-69
2023/08/15 11:26:02;;;;;;;6.70;4.80;;;37.20;45.50;;;;;;5113374;28;20831;-69
2023/08/15 11:28:29;;;;;;;5.80;4.00;;;37.30;44.50;;;;;;5113238;28;20431;-69
2023/08/15 11:30:59;;;;;;;4.77;3.97;;;37.30;44.70;;;;;;5113391;28;20438;-69
2023/08/15 11:33:29;;;;;;;6.63;3.93;;;37.20;43.30;;;;;;5113144;28;20973;-70
2023/08/15 11:35:59;;;;;;;4.40;3.13;;;37.30;43.10;;;;;;5113228;28;20505;-70
2023/08/15 11:38:29;;;;;;;5.20;3.80;;;37.20;41.20;;;;;;5112791;28;20438;-72
2023/08/15 11:40:56;;;;;;;6.93;3.70;;;37.20;40.70;;;;;;5112334;28;20436;-69
2023/08/15 11:43:23;;;;;;;5.30;3.30;;;37.10;40.50;;;;;;5113264;28;20879;-70
2023/08/15 11:45:51;;;;;;;8.60;3.60;;;37.10;42.00;;;;;;5112392;28;20980;-72
2023/08/15 11:48:19;;;;;;;5.60;3.63;;;37.10;41.00;;;;;;5113376;28;20937;-70
2023/08/15 11:50:46;;;;;;;4.07;3.10;;;37.10;40.80;;;;;;5113027;28;20466;-69
2023/08/15 11:53:15;;;;;;;5.27;3.87;;;37.00;40.90;;;;;;5112744;28;20470;-69
2023/08/15 11:55:43;;;;;;;6.23;3.47;;;36.90;40.00;;;;;;5112833;28;20431;-70
2023/08/15 11:58:24;;;;;;;5.10;3.00;;;36.80;40.00;;;;;;5113096;28;20462;-69
2023/08/15 12:01:01;;;;;;;13.67;3.70;;;36.50;39.00;;;;;;5113142;28;20523;-69
2023/08/15 12:03:30;;;;;;;5.50;3.57;;;36.20;37.50;;;;;;5113085;28;20467;-69
2023/08/15 12:06:00;;;;;;;5.80;3.70;;;35.90;36.90;;;;;;5113046;28;20838;-71
2023/08/15 12:08:27;;;;;;;6.63;4.40;;;35.50;37.20;;;;;;5112236;28;20518;-69
2023/08/15 12:11:04;;;;;;;4.60;2.83;;;35.20;37.30;;;;;;5113092;28;20486;-69
2023/08/15 12:13:32;;;;;;;6.70;3.33;;;34.90;37.50;;;;;;5112996;28;20480;-71
2023/08/15 12:16:00;;;;;;;6.23;3.73;;;34.70;37.30;;;;;;5111310;28;20467;-69
2023/08/15 12:18:28;;;;;;;9.50;3.07;;;34.40;38.20;;;;;;5111898;28;20478;-69
2023/08/15 12:20:57;;;;;;;4.33;2.93;;;34.20;38.80;;;;;;5109553;28;20983;-70
2023/08/15 12:23:24;;;;;;;8.17;3.23;;;34.00;39.60;;;;;;5111014;28;20570;-69
2023/08/15 12:25:51;;;;;;;5.03;2.80;;;33.80;40.10;;;;;;5112445;28;20993;-69
2023/08/15 12:28:18;;;;;;;10.10;3.50;;;33.60;40.50;;;;;;5112898;28;20826;-69
2023/08/15 12:30:45;;;;;;;9.43;4.40;;;33.40;40.80;;;;;;5111905;28;20500;-70
2023/08/15 12:33:12;;;;;;;5.53;3.33;;;33.30;41.00;;;;;;5112812;28;20462;-69
2023/08/15 12:35:41;;;;;;;7.97;3.30;;;33.20;41.80;;;;;;5113152;28;20442;-69
2023/08/15 12:38:08;;;;;;;6.83;3.00;;;33.00;41.10;;;;;;5111508;28;20470;-69
2023/08/15 12:40:35;;;;;;;6.33;2.80;;;32.90;41.40;;;;;;5112952;28;20431;-71
2023/08/15 12:43:02;;;;;;;7.37;2.67;;;32.70;41.40;;;;;;5112788;28;20431;-69
2023/08/15 12:45:29;;;;;;;11.23;5.67;;;32.60;41.20;;;;;;5111699;28;20537;-70
2023/08/15 12:47:56;;;;;;;10.50;5.03;;;32.40;42.10;;;;;;5112581;28;20462;-69
2023/08/15 12:50:23;;;;;;;6.60;2.87;;;32.30;42.60;;;;;;5112044;28;20439;-69
2023/08/15 12:52:52;;;;;;;5.37;2.73;;;32.10;42.80;;;;;;5112754;28;20430;-69
2023/08/15 12:55:19;;;;;;;4.80;2.90;;;31.90;43.30;;;;;;5111940;28;20478;-69
2023/08/15 12:57:45;;;;;;;7.40;2.90;;;31.80;44.10;;;;;;5101443;28;20510;-69